Time;durP1;ratioP1;P1;durP2;ratioP2;P2;SDS_P1;SDS_P2;PMS_P1;PMS_P2;Temp;Humidity;BMP_temperature;BMP_pressure;BME280_temperature;BME280_humidity;BME280_pressure;Samples;Min_cycle;Max_cycle;Signal;HPM_P1;HPM_P2
2023/10/23 00:01:06;;;;;;;0.20;0.20;;;;;;;9.05;100.00;99099.22;4984367;28;20134;-59
2023/10/23 00:03:33;;;;;;;0.30;0.30;;;;;;;9.07;100.00;99091.78;4985070;28;20061;-59
2023/10/23 00:06:00;;;;;;;0.20;0.20;;;;;;;9.01;100.00;99093.56;4985661;28;20547;-59
2023/10/23 00:08:28;;;;;;;0.20;0.20;;;;;;;9.05;100.00;99088.53;4980930;28;20042;-59
2023/10/23 00:10:55;;;;;;;0.20;0.20;;;;;;;9.06;100.00;99091.00;4985388;28;20042;-59
2023/10/23 00:13:22;;;;;;;0.20;0.20;;;;;;;9.02;100.00;99091.69;5000644;28;20054;-59
2023/10/23 00:15:52;;;;;;;0.20;0.20;;;;;;;8.98;100.00;99099.34;4985465;28;20038;-59
2023/10/23 00:18:19;;;;;;;0.28;0.28;;;;;;;9.05;100.00;99088.53;4986133;28;20077;-59
2023/10/23 00:20:45;;;;;;;0.20;0.20;;;;;;;8.95;100.00;99097.16;4981852;28;20093;-59
2023/10/23 00:23:13;;;;;;;0.20;0.20;;;;;;;8.94;100.00;99094.72;4985309;28;20581;-59
2023/10/23 00:25:40;;;;;;;0.30;0.30;;;;;;;8.92;100.00;99097.63;4978628;28;20142;-59
2023/10/23 00:28:07;;;;;;;0.20;0.20;;;;;;;8.91;100.00;99096.03;4979950;28;20378;-59
2023/10/23 00:30:35;;;;;;;0.30;0.30;;;;;;;8.96;100.00;99100.63;4984524;28;20050;-59
2023/10/23 00:33:04;;;;;;;0.15;0.15;;;;;;;9.01;100.00;99095.41;4997498;28;20563;-59
2023/10/23 00:35:31;;;;;;;0.20;0.20;;;;;;;8.98;100.00;99088.66;4982199;28;20038;-59
2023/10/23 00:37:59;;;;;;;0.20;0.20;;;;;;;8.97;100.00;99099.59;4996053;28;20061;-59
2023/10/23 00:40:26;;;;;;;0.20;0.20;;;;;;;9.01;100.00;99098.06;4988193;28;20658;-59
2023/10/23 00:42:53;;;;;;;0.30;0.30;;;;;;;9.00;100.00;99104.47;4987239;28;20042;-59
2023/10/23 00:45:20;;;;;;;0.22;0.22;;;;;;;9.05;100.00;99104.59;4984035;28;20125;-59
2023/10/23 00:47:47;;;;;;;0.20;0.20;;;;;;;9.01;100.00;99106.94;4984845;28;20133;-59
2023/10/23 00:50:15;;;;;;;0.30;0.30;;;;;;;8.99;100.00;99102.88;4981004;28;20051;-59
2023/10/23 00:52:42;;;;;;;0.20;0.20;;;;;;;9.02;100.00;99107.72;4984823;28;20054;-59
2023/10/23 00:55:10;;;;;;;0.28;0.28;;;;;;;9.04;100.00;99109.13;4967755;28;20528;-59
2023/10/23 00:57:37;;;;;;;0.20;0.20;;;;;;;9.07;100.00;99110.50;4983083;28;20030;-59
2023/10/23 01:00:04;;;;;;;0.22;0.22;;;;;;;9.03;100.00;99109.34;4986504;28;20149;-59
2023/10/23 01:02:31;;;;;;;0.20;0.20;;;;;;;9.01;100.00;99100.75;4979924;28;20046;-59
2023/10/23 01:04:59;;;;;;;0.20;0.20;;;;;;;9.02;100.00;99105.06;4995368;28;20089;-59
2023/10/23 01:07:27;;;;;;;0.20;0.20;;;;;;;8.95;100.00;99110.53;4982732;28;20039;-59
2023/10/23 01:09:54;;;;;;;0.22;0.22;;;;;;;8.92;100.00;99104.84;5021574;28;20058;-59
2023/10/23 01:12:21;;;;;;;0.20;0.20;;;;;;;8.85;100.00;99111.09;4980663;28;20396;-59
2023/10/23 01:14:48;;;;;;;0.20;0.20;;;;;;;8.85;100.00;99113.78;4988821;28;20101;-59
2023/10/23 01:17:15;;;;;;;0.25;0.25;;;;;;;8.79;100.00;99114.72;4987409;28;20046;-59
2023/10/23 01:19:42;;;;;;;0.20;0.20;;;;;;;8.81;100.00;99107.28;4984697;28;20042;-59
2023/10/23 01:22:10;;;;;;;0.20;0.20;;;;;;;8.77;100.00;99111.47;4984400;28;20057;-59
2023/10/23 01:24:42;;;;;;;0.20;0.20;;;;;;;8.82;100.00;99114.25;4988539;28;20069;-60
2023/10/23 01:27:10;;;;;;;0.30;0.30;;;;;;;8.83;100.00;99110.53;4986162;28;20045;-59
2023/10/23 01:29:37;;;;;;;0.20;0.20;;;;;;;8.86;100.00;99098.56;5017376;28;20077;-59
2023/10/23 01:32:05;;;;;;;0.30;0.30;;;;;;;8.71;100.00;99100.88;5002351;28;20485;-59
2023/10/23 01:34:32;;;;;;;0.20;0.20;;;;;;;8.67;100.00;99100.56;4978915;28;20575;-59
2023/10/23 01:36:59;;;;;;;0.30;0.30;;;;;;;8.61;100.00;99102.31;5001260;28;20058;-59
2023/10/23 01:39:26;;;;;;;0.20;0.20;;;;;;;8.61;100.00;99096.97;4996724;28;20039;-59
2023/10/23 01:41:53;;;;;;;0.30;0.30;;;;;;;8.71;100.00;99101.72;4988371;28;20066;-59
2023/10/23 01:44:22;;;;;;;0.22;0.22;;;;;;;8.73;100.00;99101.47;4989446;28;20057;-59
2023/10/23 01:46:50;;;;;;;0.30;0.30;;;;;;;8.70;100.00;99101.94;4982211;28;20069;-59
2023/10/23 01:49:17;;;;;;;0.22;0.22;;;;;;;8.73;100.00;99094.28;4982103;28;20049;-59
2023/10/23 01:51:44;;;;;;;0.10;0.10;;;;;;;8.78;100.00;99106.94;4988211;28;20044;-61
2023/10/23 01:54:11;;;;;;;0.20;0.20;;;;;;;8.77;100.00;99099.97;4982044;28;20448;-59
2023/10/23 01:56:38;;;;;;;0.20;0.20;;;;;;;8.78;100.00;99101.59;4987231;28;20035;-59
2023/10/23 01:59:05;;;;;;;0.20;0.20;;;;;;;8.77;100.00;99099.97;4986832;28;20050;-59
2023/10/23 02:01:38;;;;;;;0.20;0.20;;;;;;;8.68;100.00;99098.69;4987179;28;20630;-59
2023/10/23 02:04:05;;;;;;;0.30;0.30;;;;;;;8.69;100.00;99101.16;4987684;28;20096;-59
2023/10/23 02:06:32;;;;;;;0.20;0.20;;;;;;;8.60;100.00;99105.19;4986209;28;20084;-59
2023/10/23 02:08:59;;;;;;;0.20;0.20;;;;;;;8.56;100.00;99098.69;4979038;28;20043;-59
2023/10/23 02:11:26;;;;;;;0.30;0.30;;;;;;;8.49;100.00;99098.81;4987081;28;20404;-59
2023/10/23 02:13:56;;;;;;;0.20;0.20;;;;;;;8.45;100.00;99102.19;4989146;28;20074;-59
2023/10/23 02:16:23;;;;;;;0.20;0.20;;;;;;;8.42;100.00;99098.94;4978881;28;20042;-59
2023/10/23 02:18:51;;;;;;;0.20;0.20;;;;;;;8.32;100.00;99097.84;4985997;28;20125;-59
2023/10/23 02:21:18;;;;;;;0.20;0.20;;;;;;;8.34;100.00;99099.25;4989137;28;20184;-59
2023/10/23 02:23:45;;;;;;;0.20;0.20;;;;;;;8.21;100.00;99102.94;4990716;28;20046;-59
2023/10/23 02:26:12;;;;;;;0.20;0.20;;;;;;;8.20;100.00;99106.63;4983081;28;20370;-58
2023/10/23 02:28:39;;;;;;;0.30;0.30;;;;;;;8.10;100.00;99108.25;4987243;28;20068;-59
2023/10/23 02:31:07;;;;;;;0.20;0.20;;;;;;;8.03;100.00;99104.88;4984501;28;20046;-59
2023/10/23 02:33:34;;;;;;;0.20;0.20;;;;;;;7.94;100.00;99107.06;4991339;28;20069;-59
2023/10/23 02:36:02;;;;;;;0.40;0.40;;;;;;;7.87;100.00;99111.69;4987931;28;20034;-59
2023/10/23 02:38:29;;;;;;;0.20;0.20;;;;;;;7.85;100.00;99111.09;4998403;28;20055;-59
2023/10/23 02:40:56;;;;;;;0.30;0.30;;;;;;;7.82;100.00;99109.69;4982250;28;20515;-58
2023/10/23 02:43:23;;;;;;;0.30;0.30;;;;;;;7.88;100.00;99107.97;4983976;28;20535;-59
2023/10/23 02:45:50;;;;;;;0.30;0.30;;;;;;;7.79;100.00;99107.50;4983721;28;20039;-59
2023/10/23 02:48:17;;;;;;;0.22;0.22;;;;;;;7.82;100.00;99104.34;4989395;28;20034;-59
2023/10/23 02:50:53;;;;;;;0.30;0.30;;;;;;;7.73;100.00;99105.72;4987005;28;20058;-59
2023/10/23 02:53:21;;;;;;;0.30;0.30;;;;;;;7.78;100.00;99106.66;4990972;28;20042;-59
2023/10/23 02:55:48;;;;;;;0.20;0.20;;;;;;;7.81;100.00;99100.03;4987777;28;20643;-59
2023/10/23 02:58:16;;;;;;;0.25;0.25;;;;;;;7.71;100.00;99103.28;4986928;28;20046;-58
2023/10/23 03:00:43;;;;;;;0.30;0.30;;;;;;;7.67;100.00;99106.63;4982108;28;20058;-59
2023/10/23 03:03:10;;;;;;;0.38;0.38;;;;;;;7.54;100.00;99111.09;4967386;28;20113;-59
2023/10/23 03:05:37;;;;;;;0.20;0.20;;;;;;;7.59;100.00;99121.09;4980435;28;20177;-58
2023/10/23 03:08:05;;;;;;;0.25;0.25;;;;;;;7.57;100.00;99118.63;4990896;28;20050;-59
2023/10/23 03:10:33;;;;;;;0.30;0.30;;;;;;;7.51;100.00;99114.22;4987246;28;20345;-58
2023/10/23 03:13:00;;;;;;;0.20;0.20;;;;;;;7.48;100.00;99114.66;4984874;28;20046;-59
2023/10/23 03:15:28;;;;;;;0.20;0.20;;;;;;;7.34;100.00;99114.03;4997969;28;20441;-59
2023/10/23 03:17:55;;;;;;;0.20;0.20;;;;;;;7.28;100.00;99119.41;4986545;28;20453;-59
2023/10/23 03:20:22;;;;;;;0.28;0.28;;;;;;;7.22;100.00;99117.66;4989628;28;20438;-59
2023/10/23 03:22:49;;;;;;;0.30;0.30;;;;;;;7.12;100.00;99113.66;4983994;28;20524;-59
2023/10/23 03:25:16;;;;;;;0.20;0.20;;;;;;;7.05;100.00;99115.56;4979194;28;20092;-59
2023/10/23 03:27:44;;;;;;;0.20;0.20;;;;;;;6.97;100.00;99109.75;4990195;28;20093;-59
2023/10/23 03:30:12;;;;;;;0.20;0.20;;;;;;;6.91;100.00;99114.09;4987963;28;20046;-59
2023/10/23 03:32:39;;;;;;;0.20;0.20;;;;;;;6.88;100.00;99109.22;4980097;28;20090;-59
2023/10/23 03:35:07;;;;;;;0.40;0.40;;;;;;;6.77;100.00;99125.94;4990471;28;20062;-59
2023/10/23 03:37:33;;;;;;;0.40;0.40;;;;;;;6.85;100.00;99121.13;4977340;28;20048;-59
2023/10/23 03:40:00;;;;;;;0.40;0.40;;;;;;;6.90;100.00;99120.47;4986591;28;20048;-59
2023/10/23 03:42:27;;;;;;;0.38;0.38;;;;;;;6.80;100.00;99128.16;4984982;28;20121;-59
2023/10/23 03:44:56;;;;;;;0.40;0.40;;;;;;;6.73;100.00;99117.56;4978941;28;20060;-59
2023/10/23 03:47:23;;;;;;;0.30;0.30;;;;;;;6.62;100.00;99121.75;4981673;28;20042;-59
2023/10/23 03:49:50;;;;;;;0.30;0.30;;;;;;;6.57;100.00;99118.94;4980259;28;20141;-59
2023/10/23 03:52:17;;;;;;;0.30;0.30;;;;;;;6.41;100.00;99114.16;4983178;28;20049;-59
2023/10/23 03:54:44;;;;;;;0.38;0.38;;;;;;;6.37;100.00;99116.44;4984111;28;20073;-59
2023/10/23 03:57:11;;;;;;;0.30;0.30;;;;;;;6.34;100.00;99121.38;4982636;28;20045;-60
2023/10/23 03:59:38;;;;;;;0.30;0.30;;;;;;;6.35;100.00;99110.53;4980831;28;20178;-59
2023/10/23 04:02:07;;;;;;;0.38;0.38;;;;;;;6.34;100.00;99118.72;4985672;28;20078;-60
2023/10/23 04:04:34;;;;;;;0.30;0.30;;;;;;;6.46;100.00;99123.13;4990671;28;20115;-59
2023/10/23 04:07:00;;;;;;;0.20;0.20;;;;;;;6.40;100.00;99112.53;4983906;28;20038;-59
2023/10/23 04:09:29;;;;;;;0.40;0.40;;;;;;;6.41;100.00;99108.84;4983241;28;20080;-59
2023/10/23 04:11:56;;;;;;;0.30;0.30;;;;;;;6.34;100.00;99114.22;4967175;28;20054;-59
2023/10/23 04:14:23;;;;;;;0.30;0.30;;;;;;;6.40;100.00;99112.53;4988199;28;20038;-59
2023/10/23 04:16:51;;;;;;;0.40;0.40;;;;;;;6.45;100.00;99105.53;4985109;28;20046;-59
2023/10/23 04:19:20;;;;;;;0.30;0.30;;;;;;;6.47;100.00;99110.63;4985701;28;20196;-59
2023/10/23 04:21:47;;;;;;;0.30;0.30;;;;;;;6.47;100.00;99113.31;4987690;28;20078;-59
2023/10/23 04:24:14;;;;;;;0.30;0.30;;;;;;;6.58;100.00;99115.22;4985291;28;20049;-59
2023/10/23 04:26:41;;;;;;;0.30;0.30;;;;;;;6.60;100.00;99113.16;4988989;28;20117;-59
2023/10/23 04:29:08;;;;;;;0.38;0.38;;;;;;;6.61;100.00;99114.78;4983167;28;20109;-59
2023/10/23 04:31:35;;;;;;;0.30;0.30;;;;;;;6.64;100.00;99109.03;4984978;28;20599;-58
2023/10/23 04:34:02;;;;;;;0.22;0.22;;;;;;;6.66;100.00;99112.31;4986279;28;20050;-58
2023/10/23 04:36:31;;;;;;;0.20;0.20;;;;;;;6.66;100.00;99111.47;4988151;28;20034;-59
2023/10/23 04:38:58;;;;;;;0.20;0.20;;;;;;;6.73;100.00;99116.75;4992084;28;20054;-59
2023/10/23 04:41:25;;;;;;;0.30;0.30;;;;;;;6.76;100.00;99117.09;4993857;28;20046;-59
2023/10/23 04:43:52;;;;;;;0.30;0.30;;;;;;;6.78;100.00;99120.38;4995055;28;20044;-59
2023/10/23 04:46:19;;;;;;;0.30;0.30;;;;;;;6.78;100.00;99112.38;4988242;28;20126;-59
2023/10/23 04:48:46;;;;;;;0.28;0.28;;;;;;;6.85;100.00;99117.66;4984588;28;20045;-59
2023/10/23 04:51:13;;;;;;;0.30;0.30;;;;;;;6.88;100.00;99111.88;4986787;28;20062;-59
2023/10/23 04:53:41;;;;;;;0.40;0.40;;;;;;;7.01;100.00;99118.91;4988762;28;20048;-59
2023/10/23 04:56:08;;;;;;;0.35;0.35;;;;;;;6.95;100.00;99120.63;4986836;28;20092;-59
2023/10/23 04:58:35;;;;;;;0.30;0.30;;;;;;;6.95;100.00;99115.28;4985031;28;20077;-59
2023/10/23 05:01:02;;;;;;;0.30;0.30;;;;;;;7.06;100.00;99109.22;4988702;28;20493;-59
2023/10/23 05:03:29;;;;;;;0.20;0.20;;;;;;;7.12;100.00;99115.50;4979630;28;20165;-59
2023/10/23 05:05:56;;;;;;;0.30;0.30;;;;;;;7.11;100.00;99120.03;4991979;28;20062;-59
2023/10/23 05:08:23;;;;;;;0.30;0.30;;;;;;;7.12;100.00;99121.66;4992233;28;20125;-59
2023/10/23 05:10:52;;;;;;;0.30;0.30;;;;;;;7.04;100.00;99113.97;4987417;28;20044;-59
2023/10/23 05:13:19;;;;;;;0.30;0.30;;;;;;;7.02;100.00;99123.22;4988465;28;20129;-59
2023/10/23 05:15:46;;;;;;;0.30;0.30;;;;;;;7.09;100.00;99123.97;4989790;28;20133;-61
2023/10/23 05:18:13;;;;;;;0.30;0.30;;;;;;;7.05;100.00;99120.09;4988539;28;20544;-59
2023/10/23 05:20:40;;;;;;;0.38;0.38;;;;;;;7.07;100.00;99118.84;4989022;28;20468;-59
2023/10/23 05:23:07;;;;;;;0.50;0.50;;;;;;;7.03;100.00;99116.84;4993187;28;20141;-59
2023/10/23 05:25:36;;;;;;;0.90;0.90;;;;;;;6.88;100.00;99111.88;4977723;28;20450;-58
2023/10/23 05:28:04;;;;;;;0.40;0.40;;;;;;;6.99;100.00;99100.50;4997043;28;20050;-60
2023/10/23 05:30:31;;;;;;;0.60;0.60;;;;;;;7.05;100.00;99104.13;4983216;28;20038;-60
2023/10/23 05:32:58;;;;;;;0.68;0.68;;;;;;;6.97;100.00;99107.06;4982491;28;20054;-59
2023/10/23 05:35:25;;;;;;;1.05;0.90;;;;;;;6.98;100.00;99104.19;4986126;28;20031;-60
2023/10/23 05:37:52;;;;;;;1.48;1.30;;;;;;;6.90;100.00;99107.94;4989538;28;20434;-59
2023/10/23 05:40:19;;;;;;;1.17;1.08;;;;;;;6.88;100.00;99106.53;4985236;28;20039;-59
2023/10/23 05:42:46;;;;;;;1.50;1.20;;;;;;;6.83;100.00;99111.72;4985962;28;20054;-59
2023/10/23 05:45:15;;;;;;;0.60;0.60;;;;;;;6.99;100.00;99110.31;4981496;28;20089;-59
2023/10/23 05:47:42;;;;;;;1.20;1.10;;;;;;;6.97;100.00;99110.56;4979065;28;20153;-59
2023/10/23 05:50:09;;;;;;;1.23;1.05;;;;;;;6.97;100.00;99117.75;4986655;28;20104;-59
2023/10/23 05:52:37;;;;;;;1.23;0.90;;;;;;;7.06;100.00;99122.56;4982964;28;20204;-58
2023/10/23 05:55:05;;;;;;;0.85;0.85;;;;;;;7.10;100.00;99123.72;4988281;28;20739;-59
2023/10/23 05:57:32;;;;;;;1.15;0.95;;;;;;;7.20;100.00;99123.22;4981309;28;20066;-59
2023/10/23 05:59:59;;;;;;;1.40;1.30;;;;;;;7.05;100.00;99120.09;4986601;28;20047;-59
2023/10/23 06:02:29;;;;;;;1.95;1.55;;;;;;;6.81;100.00;99121.78;4984629;28;20136;-58
2023/10/23 06:04:56;;;;;;;1.90;1.35;;;;;;;6.93;100.00;99122.69;4985093;28;20120;-59
2023/10/23 06:07:23;;;;;;;1.40;1.08;;;;;;;7.02;100.00;99124.03;4984876;28;20045;-58
2023/10/23 06:09:51;;;;;;;1.90;1.50;;;;;;;6.92;100.00;99126.38;4981019;28;20092;-59
2023/10/23 06:12:18;;;;;;;1.90;1.50;;;;;;;6.79;100.00;99126.50;4991252;28;20082;-59
2023/10/23 06:14:45;;;;;;;2.10;1.65;;;;;;;6.73;100.00;99130.06;4984949;28;20073;-58
2023/10/23 06:17:12;;;;;;;1.27;1.08;;;;;;;6.99;100.00;99121.81;4984528;28;20317;-59
2023/10/23 06:19:41;;;;;;;1.33;1.20;;;;;;;7.23;100.00;99120.09;4978424;28;20070;-59
2023/10/23 06:22:08;;;;;;;3.17;2.00;;;;;;;7.12;100.00;99124.31;4982527;28;20074;-58
2023/10/23 06:24:35;;;;;;;2.83;1.90;;;;;;;7.05;100.00;99128.09;4991765;28;20095;-59
2023/10/23 06:27:02;;;;;;;1.40;1.30;;;;;;;7.18;100.00;99124.47;4983788;28;20038;-58
2023/10/23 06:29:29;;;;;;;1.00;1.00;;;;;;;7.29;100.00;99126.41;4982315;28;20069;-59
2023/10/23 06:31:57;;;;;;;1.00;0.95;;;;;;;7.29;100.00;99124.53;4979878;28;20097;-59
2023/10/23 06:34:24;;;;;;;2.35;1.55;;;;;;;7.26;100.00;99132.16;4981204;28;20410;-59
2023/10/23 06:36:52;;;;;;;1.30;1.20;;;;;;;7.32;100.00;99141.94;4986647;28;20133;-59
2023/10/23 06:39:19;;;;;;;2.25;1.48;;;;;;;6.99;100.00;99139.63;4984565;28;20039;-59
2023/10/23 06:41:46;;;;;;;2.05;1.63;;;;;;;7.09;100.00;99137.28;4986509;28;20437;-59
2023/10/23 06:44:14;;;;;;;2.30;1.63;;;;;;;6.98;100.00;99130.81;4979802;28;20046;-59
2023/10/23 06:46:41;;;;;;;2.25;1.60;;;;;;;7.18;100.00;99127.94;4982053;28;20042;-59
2023/10/23 06:49:08;;;;;;;1.05;0.98;;;;;;;7.42;100.00;99133.41;4983384;28;20039;-59
2023/10/23 06:51:36;;;;;;;0.95;0.95;;;;;;;7.44;100.00;99123.31;4980103;28;20047;-59
2023/10/23 06:54:05;;;;;;;1.48;1.10;;;;;;;7.25;100.00;99130.53;4975280;28;20052;-59
2023/10/23 06:56:32;;;;;;;1.10;0.98;;;;;;;7.47;100.00;99142.38;4973466;28;20042;-59
2023/10/23 06:58:59;;;;;;;2.15;1.33;;;;;;;7.37;100.00;99144.75;4981831;28;20153;-58
2023/10/23 07:01:26;;;;;;;1.13;0.93;;;;;;;7.19;100.00;99136.75;4977459;28;20054;-59
2023/10/23 07:03:53;;;;;;;1.23;1.00;;;;;;;6.93;100.00;99133.34;4981182;28;20485;-58
2023/10/23 07:06:20;;;;;;;1.05;0.85;;;;;;;7.21;100.00;99129.34;4978092;28;20085;-59
2023/10/23 07:08:47;;;;;;;0.98;0.88;;;;;;;7.41;100.00;99131.78;4980770;28;20133;-59
2023/10/23 07:11:16;;;;;;;0.60;0.60;;;;;;;7.64;100.00;99136.41;4989379;28;20464;-59
2023/10/23 07:13:46;;;;;;;0.80;0.80;;;;;;;7.42;100.00;99136.09;4978104;28;20124;-59
2023/10/23 07:16:14;;;;;;;0.60;0.60;;;;;;;7.62;100.00;99133.16;5016932;28;20050;-60
2023/10/23 07:18:40;;;;;;;0.60;0.57;;;;;;;7.73;100.00;99132.38;4984422;28;20049;-59
2023/10/23 07:21:08;;;;;;;0.30;0.30;;;;;;;7.90;100.00;99130.72;4982289;28;20405;-59
2023/10/23 07:23:35;;;;;;;0.80;0.80;;;;;;;7.89;100.00;99115.75;4983850;28;20050;-59
2023/10/23 07:26:03;;;;;;;0.73;0.73;;;;;;;8.07;100.00;99122.06;4980453;28;20125;-59
2023/10/23 07:28:32;;;;;;;0.28;0.28;;;;;;;8.08;100.00;99113.00;4976910;28;20387;-59
2023/10/23 07:31:02;;;;;;;0.50;0.50;;;;;;;8.02;100.00;99113.94;4981229;28;20050;-61
2023/10/23 07:33:29;;;;;;;0.50;0.50;;;;;;;8.05;100.00;99116.13;4979416;28;20069;-59
2023/10/23 07:36:06;;;;;;;0.50;0.40;;;;;;;7.92;100.00;99112.63;4979851;28;20074;-59
2023/10/23 07:38:33;;;;;;;0.50;0.50;;;;;;;7.98;100.00;99109.03;4982596;28;20050;-59
2023/10/23 07:41:00;;;;;;;0.30;0.30;;;;;;;8.06;100.00;99107.06;4980940;28;20117;-59
2023/10/23 07:43:27;;;;;;;0.30;0.30;;;;;;;8.06;100.00;99109.75;4980086;28;20065;-59
2023/10/23 07:45:56;;;;;;;0.30;0.30;;;;;;;8.27;100.00;99117.22;4981356;28;20051;-59
2023/10/23 07:48:24;;;;;;;0.30;0.30;;;;;;;8.31;100.00;99117.56;4977993;28;20050;-59
2023/10/23 07:50:51;;;;;;;0.30;0.30;;;;;;;8.08;100.00;99113.81;4977192;28;20042;-59
2023/10/23 07:53:18;;;;;;;0.40;0.40;;;;;;;8.45;100.00;99112.88;4983520;28;20047;-59
2023/10/23 07:55:45;;;;;;;0.47;0.47;;;;;;;8.53;100.00;99112.50;4982067;28;20053;-60
2023/10/23 07:58:12;;;;;;;0.22;0.22;;;;;;;8.59;100.00;99111.59;4984358;28;20046;-60
2023/10/23 08:00:39;;;;;;;0.30;0.30;;;;;;;8.51;100.00;99109.25;4982245;28;20816;-59
2023/10/23 08:03:07;;;;;;;0.47;0.47;;;;;;;8.40;100.00;99105.53;4982739;28;20157;-59
2023/10/23 08:05:34;;;;;;;0.30;0.30;;;;;;;8.46;100.00;99099.25;4981801;28;20058;-59
2023/10/23 08:08:01;;;;;;;0.30;0.30;;;;;;;8.38;100.00;99107.59;4981900;28;20133;-59
2023/10/23 08:10:28;;;;;;;0.20;0.20;;;;;;;8.51;100.00;99107.41;4983870;28;20042;-59
2023/10/23 08:12:55;;;;;;;0.45;0.45;;;;;;;8.52;100.00;99105.56;4980564;28;20486;-59
2023/10/23 08:15:22;;;;;;;0.20;0.20;;;;;;;8.48;100.00;99101.72;4979844;28;20585;-59
2023/10/23 08:17:51;;;;;;;0.20;0.20;;;;;;;8.63;100.00;99102.88;4981195;28;20388;-59
2023/10/23 08:20:20;;;;;;;0.40;0.40;;;;;;;8.40;100.00;99106.34;4985788;28;20053;-59
2023/10/23 08:22:47;;;;;;;0.20;0.20;;;;;;;8.45;100.00;99104.84;4982308;28;20034;-59
2023/10/23 08:25:14;;;;;;;0.20;0.20;;;;;;;8.55;100.00;99113.09;4998417;28;20045;-59
2023/10/23 08:27:41;;;;;;;0.30;0.30;;;;;;;8.39;100.00;99119.91;4981643;28;20051;-60
2023/10/23 08:30:09;;;;;;;0.20;0.20;;;;;;;8.76;100.00;99119.72;4985327;28;20453;-59
2023/10/23 08:32:36;;;;;;;0.20;0.20;;;;;;;8.85;100.00;99116.44;4979112;28;20473;-59
2023/10/23 08:35:04;;;;;;;0.20;0.20;;;;;;;9.01;100.00;99111.44;4984755;28;20430;-59
2023/10/23 08:37:32;;;;;;;0.20;0.20;;;;;;;9.16;100.00;99111.78;4973394;28;20734;-59
2023/10/23 08:40:00;;;;;;;0.30;0.30;;;;;;;9.23;100.00;99109.75;4984973;28;20212;-59
2023/10/23 08:42:27;;;;;;;0.20;0.20;;;;;;;9.11;100.00;99117.03;4983850;28;20050;-59
2023/10/23 08:44:54;;;;;;;0.20;0.20;;;;;;;9.45;100.00;99117.16;4986271;28;20061;-59
2023/10/23 08:47:21;;;;;;;0.20;0.20;;;;;;;9.48;100.00;99122.03;4980712;28;20353;-60
2023/10/23 08:49:49;;;;;;;0.20;0.20;;;;;;;9.43;100.00;99113.91;4981295;28;20564;-59
2023/10/23 08:52:17;;;;;;;0.20;0.20;;;;;;;9.47;100.00;99112.38;4979592;28;20085;-60
2023/10/23 08:54:45;;;;;;;0.20;0.20;;;;;;;9.45;100.00;99117.16;4977862;28;20050;-59
2023/10/23 08:57:11;;;;;;;0.20;0.20;;;;;;;9.33;100.00;99103.81;4980408;28;20161;-59
2023/10/23 08:59:41;;;;;;;0.20;0.20;;;;;;;9.24;100.00;99110.59;4982599;28;20046;-60
2023/10/23 09:02:09;;;;;;;0.30;0.30;;;;;;;9.08;100.00;99101.44;4976085;28;20070;-59
2023/10/23 09:04:36;;;;;;;0.30;0.30;;;;;;;9.26;100.00;99098.63;4984183;28;20589;-59
2023/10/23 09:07:04;;;;;;;0.17;0.17;;;;;;;9.25;100.00;99090.81;4983994;28;20039;-59
2023/10/23 09:09:31;;;;;;;0.10;0.10;;;;;;;9.24;100.00;99081.19;4981301;28;20137;-59
2023/10/23 09:12:02;;;;;;;0.20;0.20;;;;;;;9.30;100.00;99077.53;4978585;28;20125;-60
2023/10/23 09:14:31;;;;;;;0.20;0.20;;;;;;;9.53;100.00;99075.84;4980973;28;20038;-59
2023/10/23 09:16:59;;;;;;;0.20;0.20;;;;;;;9.53;100.00;99073.16;4985166;28;20050;-59
2023/10/23 09:19:27;;;;;;;0.20;0.20;;;;;;;9.70;100.00;99066.78;4982565;28;20057;-59
2023/10/23 09:21:55;;;;;;;0.20;0.20;;;;;;;9.79;100.00;99069.09;4984465;28;20141;-59
2023/10/23 09:24:22;;;;;;;0.30;0.30;;;;;;;9.87;100.00;99072.19;4984878;28;20519;-59
2023/10/23 09:26:50;;;;;;;0.15;0.13;;;;;;;10.27;100.00;99062.38;4988898;28;20050;-60
2023/10/23 09:29:21;;;;;;;0.20;0.20;;;;;;;10.35;100.00;99064.66;4987762;28;20104;-59
2023/10/23 09:31:49;;;;;;;0.10;0.10;;;;;;;10.29;100.00;99069.16;4983034;28;20521;-59
2023/10/23 09:34:18;;;;;;;0.20;0.20;;;;;;;10.53;100.00;99063.59;4983240;28;20035;-59
2023/10/23 09:36:45;;;;;;;0.20;0.20;;;;;;;10.52;100.00;99059.31;4984349;28;20050;-59
2023/10/23 09:39:13;;;;;;;0.20;0.20;;;;;;;10.58;100.00;99045.75;4985607;28;20039;-60
2023/10/23 09:41:41;;;;;;;0.20;0.20;;;;;;;10.67;100.00;99046.09;4985010;28;20398;-59
2023/10/23 09:44:08;;;;;;;0.20;0.20;;;;;;;11.10;100.00;99049.06;4987140;28;20138;-60
2023/10/23 09:46:36;;;;;;;0.20;0.20;;;;;;;11.11;100.00;99038.09;4985475;28;20572;-60
2023/10/23 09:49:03;;;;;;;0.10;0.10;;;;;;;10.97;100.00;99037.66;4982488;28;20081;-60
2023/10/23 09:51:36;;;;;;;0.15;0.15;;;;;;;11.49;100.00;99043.59;4983310;28;20058;-59
2023/10/23 09:54:05;;;;;;;0.20;0.20;;;;;;;11.37;100.00;99047.22;4983850;28;20034;-59
2023/10/23 09:56:32;;;;;;;0.20;0.20;;;;;;;11.74;100.00;99046.53;4978207;28;20073;-59
2023/10/23 09:59:00;;;;;;;0.10;0.10;;;;;;;12.36;100.00;99042.50;4982239;28;20485;-59
2023/10/23 10:01:32;;;;;;;0.20;0.20;;;;;;;12.18;100.00;99038.34;4982031;28;20065;-59
2023/10/23 10:04:03;;;;;;;0.20;0.20;;;;;;;12.34;100.00;99033.88;4988439;28;20481;-59
2023/10/23 10:06:31;;;;;;;0.10;0.10;;;;;;;11.39;100.00;99031.69;4984666;28;20409;-59
2023/10/23 10:08:58;;;;;;;0.20;0.20;;;;;;;11.61;100.00;99030.84;4989039;28;20695;-59
2023/10/23 10:11:26;;;;;;;0.15;0.15;;;;;;;11.95;100.00;99031.44;4984451;28;20065;-60
2023/10/23 10:13:53;;;;;;;0.10;0.10;;;;;;;12.04;100.00;99029.09;4989013;28;20055;-59
2023/10/23 10:16:20;;;;;;;0.10;0.10;;;;;;;12.14;100.00;99023.81;4988741;28;20620;-60
2023/10/23 10:18:47;;;;;;;0.10;0.10;;;;;;;12.30;100.00;99028.22;4986866;28;20058;-59
2023/10/23 10:21:17;;;;;;;0.20;0.20;;;;;;;12.34;100.00;99028.50;4988333;28;20074;-59
2023/10/23 10:23:44;;;;;;;0.10;0.10;;;;;;;12.27;100.00;99017.16;4983220;28;20092;-61
2023/10/23 10:26:11;;;;;;;0.10;0.10;;;;;;;12.38;100.00;99013.50;4985530;28;20593;-59
2023/10/23 10:28:40;;;;;;;0.20;0.20;;;;;;;12.42;100.00;99011.09;4982488;28;20048;-59
2023/10/23 10:31:07;;;;;;;0.10;0.10;;;;;;;12.68;100.00;99006.66;4984411;28;20384;-59
2023/10/23 10:33:35;;;;;;;0.10;0.10;;;;;;;12.30;100.00;99003.22;4986963;28;20077;-59
2023/10/23 10:36:03;;;;;;;0.10;0.10;;;;;;;12.91;100.00;98997.34;4986414;28;20097;-59
2023/10/23 10:38:32;;;;;;;0.20;0.20;;;;;;;12.93;100.00;98990.66;4989151;28;20485;-59
2023/10/23 10:41:00;;;;;;;0.10;0.10;;;;;;;12.80;100.00;98990.31;4987340;28;20129;-59
2023/10/23 10:43:30;;;;;;;0.20;0.20;;;;;;;12.91;100.00;98991.97;4987190;28;20405;-59
2023/10/23 10:45:57;;;;;;;0.10;0.10;;;;;;;12.73;100.00;98983.31;4985480;28;20588;-58
2023/10/23 10:48:25;;;;;;;0.10;0.10;;;;;;;12.24;100.00;98982.75;4979606;28;20077;-60
2023/10/23 10:50:53;;;;;;;0.10;0.10;;;;;;;13.16;100.00;98980.50;4986428;28;20050;-59
2023/10/23 10:53:23;;;;;;;0.10;0.10;;;;;;;12.82;100.00;98969.34;4981647;28;20042;-60
2023/10/23 10:55:51;;;;;;;0.10;0.10;;;;;;;13.26;100.00;98966.25;4983268;28;20089;-59
2023/10/23 10:58:19;;;;;;;0.10;0.10;;;;;;;13.00;100.00;98966.16;4980645;28;20054;-59
2023/10/23 11:00:46;;;;;;;0.10;0.10;;;;;;;13.41;100.00;98960.91;4986908;28;20524;-59
2023/10/23 11:03:13;;;;;;;0.13;0.13;;;;;;;12.79;100.00;98959.13;4984931;28;20135;-60
2023/10/23 11:05:45;;;;;;;0.10;0.10;;;;;;;13.26;100.00;98950.09;4982916;28;20547;-59
2023/10/23 11:08:12;;;;;;;0.13;0.13;;;;;;;12.81;100.00;98947.03;4985895;28;20078;-59
2023/10/23 11:10:39;;;;;;;0.10;0.10;;;;;;;12.79;100.00;98959.91;4980307;28;20058;-60
2023/10/23 11:13:08;;;;;;;0.10;0.10;;;;;;;13.20;100.00;98946.56;4985639;28;20086;-60
2023/10/23 11:15:35;;;;;;;0.10;0.10;;;;;;;13.21;100.00;98939.34;4984065;28;20042;-60
2023/10/23 11:18:02;;;;;;;0.10;0.10;;;;;;;13.31;100.00;98932.09;4982999;28;20815;-60
2023/10/23 11:20:31;;;;;;;0.20;0.20;;;;;;;13.11;100.00;98932.03;4985152;28;20122;-59
2023/10/23 11:23:00;;;;;;;0.10;0.10;;;;;;;13.35;100.00;98924.28;4986026;28;20556;-60
2023/10/23 11:25:27;;;;;;;0.10;0.10;;;;;;;13.79;99.40;98918.38;4978510;28;20049;-59
2023/10/23 11:27:55;;;;;;;0.20;0.20;;;;;;;13.63;99.43;98908.69;4984868;28;20054;-60
2023/10/23 11:30:26;;;;;;;0.20;0.20;;;;;;;13.84;98.23;98904.09;4979931;28;20133;-60
2023/10/23 11:32:53;;;;;;;0.10;0.10;;;;;;;13.79;97.60;98899.53;4986167;28;20077;-60